createdAt,value
2017-05-18T00:01:41.873Z,4.44
2017-05-18T00:04:08.912Z,5.14
2017-05-18T00:06:35.849Z,4.88
2017-05-18T00:09:02.802Z,5.02
2017-05-18T00:11:29.717Z,5.08
2017-05-18T00:13:56.693Z,5.70
2017-05-18T00:16:24.414Z,4.38
2017-05-18T00:18:51.397Z,4.18
2017-05-18T00:21:18.327Z,4.04
2017-05-18T00:23:45.275Z,4.46
2017-05-18T00:26:12.247Z,3.94
2017-05-18T00:28:39.175Z,5.10
2017-05-18T00:31:06.279Z,5.00
2017-05-18T00:33:33.295Z,4.62
2017-05-18T00:36:00.224Z,4.30
2017-05-18T00:38:27.156Z,4.12
2017-05-18T00:40:54.081Z,3.90
2017-05-18T00:43:21.003Z,4.90
2017-05-18T00:45:49.055Z,4.32
2017-05-18T00:48:15.991Z,4.20
2017-05-18T00:50:42.926Z,4.60
2017-05-18T00:53:09.884Z,3.96
2017-05-18T00:55:36.904Z,4.76
2017-05-18T00:58:04.927Z,3.62
2017-05-18T01:00:32.678Z,4.22
2017-05-18T01:02:59.578Z,4.30
2017-05-18T01:05:26.551Z,4.08
2017-05-18T01:07:53.539Z,4.56
2017-05-18T01:10:20.543Z,4.48
2017-05-18T01:12:48.493Z,4.34
2017-05-18T01:15:15.419Z,4.90
2017-05-18T01:17:42.325Z,5.08
2017-05-18T01:20:09.265Z,4.16
2017-05-18T01:22:36.203Z,4.16
2017-05-18T01:25:03.132Z,4.68
2017-05-18T01:27:30.031Z,4.62
2017-05-18T01:29:57.719Z,4.16
2017-05-18T01:32:24.671Z,4.40
2017-05-18T01:34:51.627Z,4.12
2017-05-18T01:37:18.612Z,5.12
2017-05-18T01:39:45.579Z,4.40
2017-05-18T01:42:13.285Z,4.28
2017-05-18T01:44:40.251Z,4.38
2017-05-18T01:47:07.236Z,4.38
2017-05-18T01:49:34.908Z,4.76
2017-05-18T01:52:02.348Z,4.58
2017-05-18T01:54:29.994Z,4.20
2017-05-18T01:56:56.926Z,4.70
2017-05-18T01:59:23.919Z,4.32
2017-05-18T02:01:50.932Z,4.44
2017-05-18T02:04:17.888Z,4.50
2017-05-18T02:06:44.830Z,4.02
2017-05-18T02:09:11.737Z,4.98
2017-05-18T02:11:38.677Z,4.76
2017-05-18T02:14:05.628Z,5.66
2017-05-18T02:16:33.536Z,4.90
2017-05-18T02:19:00.443Z,4.78
2017-05-18T02:21:27.375Z,5.56
2017-05-18T02:23:54.393Z,4.80
2017-05-18T02:26:21.655Z,5.00
2017-05-18T02:28:48.573Z,4.94
2017-05-18T02:31:15.503Z,5.02
2017-05-18T02:33:42.441Z,4.92
2017-05-18T02:36:09.346Z,5.30
2017-05-18T02:38:36.303Z,4.18
2017-05-18T02:41:08.943Z,4.30
2017-05-18T02:43:35.885Z,4.36
2017-05-18T02:46:03.585Z,4.78
2017-05-18T02:48:30.541Z,4.20
2017-05-18T02:50:57.463Z,4.74
2017-05-18T02:53:24.404Z,4.42
2017-05-18T02:55:52.074Z,4.54
2017-05-18T02:58:19.009Z,5.10
2017-05-18T03:00:46.728Z,4.62
2017-05-18T03:03:20.288Z,3.44
2017-05-18T03:05:47.287Z,4.24
2017-05-18T03:08:14.197Z,4.76
2017-05-18T03:10:41.112Z,4.86
2017-05-18T03:13:08.820Z,4.62
2017-05-18T03:15:35.765Z,4.92
2017-05-18T03:18:02.742Z,5.34
2017-05-18T03:20:30.432Z,5.36
2017-05-18T03:22:59.559Z,5.18
2017-05-18T03:25:26.525Z,4.04
2017-05-18T03:27:53.451Z,4.66
2017-05-18T03:30:20.366Z,4.30
2017-05-18T03:32:48.030Z,4.40
2017-05-18T03:35:15.204Z,4.38
2017-05-18T03:37:42.118Z,4.80
2017-05-18T03:40:10.121Z,5.16
2017-05-18T03:42:37.008Z,4.38
2017-05-18T03:45:03.898Z,3.98
2017-05-18T03:47:30.871Z,4.72
2017-05-18T03:49:57.796Z,5.48
2017-05-18T03:52:24.734Z,4.10
2017-05-18T03:54:51.681Z,5.14
2017-05-18T03:57:18.952Z,4.78
2017-05-18T03:59:45.893Z,4.20
2017-05-18T04:02:13.587Z,4.26
2017-05-18T04:04:40.524Z,4.28
2017-05-18T04:07:08.245Z,4.40
2017-05-18T04:09:36.200Z,4.72
2017-05-18T04:12:04.597Z,4.30
2017-05-18T04:14:31.613Z,4.72
2017-05-18T04:16:58.584Z,5.22
2017-05-18T04:19:26.256Z,4.28
2017-05-18T04:21:53.213Z,4.30
2017-05-18T04:24:20.144Z,4.76
2017-05-18T04:26:47.089Z,5.06
2017-05-18T04:29:15.653Z,4.64
2017-05-18T04:31:42.607Z,5.50
2017-05-18T04:34:09.640Z,5.08
2017-05-18T04:36:36.617Z,4.74
2017-05-18T04:39:03.560Z,4.72
2017-05-18T04:41:30.583Z,4.94
2017-05-18T04:43:57.530Z,4.90
2017-05-18T04:46:24.436Z,5.22
2017-05-18T04:48:51.347Z,4.46
2017-05-18T04:51:18.299Z,5.16
2017-05-18T04:53:45.240Z,5.10
2017-05-18T04:56:12.178Z,4.84
2017-05-18T04:58:39.865Z,5.66
2017-05-18T05:01:06.795Z,4.80
2017-05-18T05:03:33.726Z,6.22
2017-05-18T05:06:01.402Z,6.02
2017-05-18T05:08:28.336Z,6.26
2017-05-18T05:10:56.035Z,5.90
2017-05-18T05:13:22.963Z,7.16
2017-05-18T05:15:49.943Z,6.16
2017-05-18T05:18:16.912Z,6.58
2017-05-18T05:20:43.834Z,5.36
2017-05-18T05:23:10.735Z,5.82
2017-05-18T05:25:37.667Z,5.00
2017-05-18T05:28:05.349Z,5.30
2017-05-18T05:30:32.307Z,7.92
2017-05-18T05:33:00.219Z,6.12
2017-05-18T05:35:27.655Z,5.72
2017-05-18T05:37:55.066Z,5.74
2017-05-18T05:50:07.879Z,6.38
2017-05-18T05:52:49.717Z,6.30
2017-05-18T05:55:16.630Z,5.96
2017-05-18T05:57:43.542Z,6.48
2017-05-18T06:00:11.179Z,6.32
2017-05-18T06:02:38.172Z,6.48
2017-05-18T06:05:05.150Z,7.26
2017-05-18T06:07:32.154Z,6.24
2017-05-18T06:09:59.906Z,5.64
2017-05-18T06:12:26.964Z,5.80
2017-05-18T06:14:53.953Z,6.64
2017-05-18T06:17:21.035Z,7.08
2017-05-18T06:19:47.934Z,8.02
2017-05-18T06:22:14.839Z,8.44
2017-05-18T06:24:41.750Z,8.58
2017-05-18T06:27:08.717Z,8.88
2017-05-18T06:29:35.871Z,8.20
2017-05-18T06:32:03.534Z,7.52
2017-05-18T06:34:31.216Z,7.74
2017-05-18T06:36:58.140Z,8.90
2017-05-18T06:39:25.785Z,7.58
2017-05-18T06:41:54.238Z,7.00
2017-05-18T06:44:21.137Z,8.66
2017-05-18T06:46:49.115Z,6.94
2017-05-18T06:49:18.591Z,8.60
2017-05-18T06:51:48.218Z,8.16
2017-05-18T06:54:16.272Z,8.60
2017-05-18T06:56:43.908Z,8.82
2017-05-18T06:59:10.851Z,7.50
2017-05-18T07:01:37.771Z,9.18
2017-05-18T07:04:04.729Z,8.14
2017-05-18T07:06:31.665Z,8.62
2017-05-18T07:08:58.592Z,7.72
2017-05-18T07:11:25.494Z,7.72
2017-05-18T07:13:52.517Z,8.94
2017-05-18T07:16:19.475Z,8.04
2017-05-18T07:18:46.416Z,9.22
2017-05-18T07:21:13.328Z,8.86
2017-05-18T07:23:40.300Z,7.32
2017-05-18T07:26:07.228Z,7.04
2017-05-18T07:28:34.109Z,8.56
2017-05-18T07:31:01.048Z,5.00
2017-05-18T07:33:27.976Z,5.92
2017-05-18T07:35:54.915Z,5.88
2017-05-18T07:38:21.855Z,6.24
2017-05-18T07:40:48.810Z,7.94
2017-05-18T07:43:15.787Z,7.60
2017-05-18T07:45:42.691Z,7.54
2017-05-18T07:48:10.853Z,5.68
2017-05-18T07:50:37.898Z,6.42
2017-05-18T07:53:04.830Z,5.90
2017-05-18T07:55:32.519Z,5.34
2017-05-18T07:57:59.451Z,6.82
2017-05-18T08:00:27.421Z,8.20
2017-05-18T08:02:55.121Z,5.88
2017-05-18T08:05:22.047Z,7.30
2017-05-18T08:07:49.034Z,7.10
2017-05-18T08:10:16.223Z,6.26
2017-05-18T08:12:43.888Z,5.74
2017-05-18T08:15:11.571Z,5.44
2017-05-18T08:17:38.539Z,5.72
2017-05-18T08:20:05.471Z,5.10
2017-05-18T08:22:32.413Z,5.88
2017-05-18T08:24:59.326Z,4.66
2017-05-18T08:27:26.982Z,5.34
2017-05-18T08:29:54.677Z,4.06
2017-05-18T08:32:21.612Z,4.50
2017-05-18T08:34:49.876Z,4.50
2017-05-18T08:37:17.552Z,4.24
2017-05-18T08:39:45.212Z,4.22
2017-05-18T08:42:14.877Z,4.46
2017-05-18T08:44:41.827Z,4.62
2017-05-18T08:47:08.756Z,4.34
2017-05-18T08:49:35.674Z,4.68
2017-05-18T08:52:02.597Z,4.10
2017-05-18T08:54:30.281Z,3.88
2017-05-18T08:56:57.289Z,4.74
2017-05-18T08:59:24.456Z,4.42
2017-05-18T09:01:52.306Z,4.10
2017-05-18T09:04:19.230Z,4.56
2017-05-18T09:06:48.035Z,3.90
2017-05-18T09:09:15.848Z,3.50
2017-05-18T09:11:42.827Z,3.66
2017-05-18T09:14:09.767Z,4.70
2017-05-18T09:16:37.024Z,3.58
2017-05-18T09:19:04.016Z,3.76
2017-05-18T09:21:31.665Z,2.86
2017-05-18T09:23:58.592Z,3.58
2017-05-18T09:26:25.522Z,3.86
2017-05-18T09:28:52.446Z,4.20
2017-05-18T09:31:19.388Z,4.06
2017-05-18T09:33:46.368Z,3.48
2017-05-18T09:36:13.287Z,3.42
2017-05-18T09:38:40.207Z,3.06
2017-05-18T09:41:08.117Z,3.60
2017-05-18T09:43:35.051Z,3.14
2017-05-18T09:46:01.983Z,2.90
2017-05-18T09:48:30.015Z,3.34
2017-05-18T09:50:56.941Z,2.74
2017-05-18T09:53:23.864Z,3.28
2017-05-18T09:55:51.249Z,3.06
2017-05-18T09:58:18.188Z,3.50
2017-05-18T10:00:45.119Z,2.98
2017-05-18T10:03:12.067Z,2.68
2017-05-18T10:05:38.993Z,3.54
2017-05-18T10:08:05.931Z,3.40
2017-05-18T10:10:32.878Z,3.52
2017-05-18T10:12:59.805Z,3.20
2017-05-18T10:15:27.470Z,3.04
2017-05-18T10:17:54.416Z,2.76
2017-05-18T10:20:22.076Z,2.86
2017-05-18T10:22:48.998Z,2.62
2017-05-18T10:25:15.994Z,3.20
2017-05-18T10:27:42.908Z,3.02
2017-05-18T10:30:10.596Z,2.48
2017-05-18T10:32:37.612Z,2.60
2017-05-18T10:35:05.268Z,2.94
2017-05-18T10:37:32.949Z,2.32
2017-05-18T10:40:00.611Z,2.78
2017-05-18T10:42:28.267Z,2.86
2017-05-18T10:44:56.332Z,2.84
2017-05-18T10:47:22.936Z,3.44
2017-05-18T10:49:50.701Z,3.32
2017-05-18T10:52:17.696Z,2.20
2017-05-18T10:54:45.799Z,2.80
2017-05-18T10:57:12.780Z,2.82
2017-05-18T10:59:40.269Z,2.40
2017-05-18T11:02:09.581Z,2.82
2017-05-18T11:04:36.544Z,2.60
2017-05-18T11:07:03.534Z,2.48
2017-05-18T11:09:30.471Z,2.56
2017-05-18T11:11:57.447Z,2.40
2017-05-18T11:14:25.170Z,3.02
2017-05-18T11:16:52.137Z,2.92
2017-05-18T11:19:19.041Z,2.40
2017-05-18T11:21:46.026Z,2.74
2017-05-18T11:24:12.971Z,2.90
2017-05-18T11:26:39.935Z,2.30
2017-05-18T11:29:06.913Z,2.76
2017-05-18T11:31:33.836Z,3.32
2017-05-18T11:34:01.478Z,3.80
2017-05-18T11:36:28.436Z,3.00
2017-05-18T11:38:55.390Z,2.92
2017-05-18T11:41:23.079Z,2.70
2017-05-18T11:43:50.031Z,3.26
2017-05-18T11:46:16.966Z,2.60
2017-05-18T11:48:43.891Z,3.26
2017-05-18T11:51:11.589Z,2.72
2017-05-18T11:53:38.528Z,3.06
2017-05-18T11:56:05.450Z,2.82
2017-05-18T11:58:33.164Z,3.50
2017-05-18T12:01:00.101Z,2.72
2017-05-18T12:03:27.060Z,2.80
2017-05-18T12:05:53.993Z,3.06
2017-05-18T12:08:20.547Z,2.74
2017-05-18T12:10:47.461Z,2.90
2017-05-18T12:13:14.394Z,2.78
2017-05-18T12:15:41.340Z,3.06
2017-05-18T12:18:07.929Z,3.04
2017-05-18T12:20:34.850Z,2.52
2017-05-18T12:23:01.851Z,2.90
2017-05-18T12:25:29.509Z,3.18
2017-05-18T12:27:57.123Z,2.80
2017-05-18T12:30:24.073Z,2.90
2017-05-18T12:32:51.029Z,2.56
2017-05-18T12:35:17.995Z,3.12
2017-05-18T12:37:44.963Z,2.90
2017-05-18T12:40:12.629Z,2.94
2017-05-18T12:42:40.325Z,3.10
2017-05-18T12:45:07.248Z,3.18
2017-05-18T12:47:34.185Z,3.36
2017-05-18T12:50:01.868Z,3.54
2017-05-18T12:52:28.797Z,3.78
2017-05-18T12:54:55.745Z,3.30
2017-05-18T12:57:22.720Z,3.40
2017-05-18T12:59:49.640Z,3.80
2017-05-18T13:02:17.507Z,3.62
2017-05-18T13:04:44.471Z,2.78
2017-05-18T13:07:11.391Z,3.52
2017-05-18T13:09:39.036Z,3.62
2017-05-18T13:12:05.980Z,3.72
2017-05-18T13:14:32.908Z,3.96
2017-05-18T13:16:59.801Z,3.58
2017-05-18T13:19:26.748Z,3.90
2017-05-18T13:21:53.747Z,3.40
2017-05-18T13:24:20.662Z,2.68
2017-05-18T13:26:47.879Z,4.76
2017-05-18T13:29:15.581Z,3.52
2017-05-18T13:31:43.343Z,3.22
2017-05-18T13:34:10.316Z,3.18
2017-05-18T13:36:37.239Z,2.90
2017-05-18T13:39:04.220Z,3.40
2017-05-18T13:41:31.492Z,2.96
2017-05-18T13:43:59.564Z,2.90
2017-05-18T13:46:27.235Z,2.64
2017-05-18T13:48:54.885Z,3.12
2017-05-18T13:51:22.584Z,3.06
2017-05-18T13:53:49.765Z,4.06
2017-05-18T13:56:16.707Z,4.22
2017-05-18T13:58:43.639Z,3.96
2017-05-18T14:01:13.114Z,3.48
2017-05-18T14:03:40.125Z,3.68
2017-05-18T14:06:07.043Z,3.48
2017-05-18T14:08:33.968Z,3.04
2017-05-18T14:11:00.992Z,3.38
2017-05-18T14:13:28.643Z,3.56
2017-05-18T14:15:56.963Z,3.30
2017-05-18T14:18:23.935Z,3.58
2017-05-18T14:20:50.857Z,3.52
2017-05-18T14:23:18.029Z,2.78
2017-05-18T14:25:44.947Z,3.32
2017-05-18T14:28:11.883Z,2.92
2017-05-18T14:30:38.785Z,3.10
2017-05-18T14:33:05.713Z,3.60
2017-05-18T14:35:32.705Z,2.58
2017-05-18T14:38:00.451Z,2.70
2017-05-18T14:40:27.401Z,2.70
2017-05-18T14:42:55.054Z,2.40
2017-05-18T14:45:22.106Z,2.40
2017-05-18T14:47:49.813Z,2.46
2017-05-18T14:50:16.912Z,2.40
2017-05-18T14:52:44.913Z,2.74
2017-05-18T14:55:11.881Z,2.60
2017-05-18T14:57:38.846Z,2.76
2017-05-18T15:00:05.736Z,3.02
2017-05-18T15:02:33.473Z,3.94
2017-05-18T15:05:00.378Z,2.68
2017-05-18T15:07:27.323Z,2.78
2017-05-18T15:09:54.268Z,3.52
2017-05-18T15:12:21.341Z,2.96
2017-05-18T15:14:48.365Z,3.30
2017-05-18T15:17:15.313Z,3.00
2017-05-18T15:19:42.594Z,2.66
2017-05-18T15:22:09.531Z,2.76
2017-05-18T15:24:36.531Z,2.46
2017-05-18T15:27:04.224Z,3.00
2017-05-18T15:29:31.143Z,2.20
2017-05-18T15:31:58.136Z,2.22
2017-05-18T15:34:25.060Z,2.46
2017-05-18T15:36:51.952Z,2.22
2017-05-18T15:39:18.908Z,2.38
2017-05-18T15:41:45.807Z,2.18
2017-05-18T15:44:12.736Z,2.20
2017-05-18T15:46:39.715Z,1.80
2017-05-18T15:49:06.831Z,2.38
2017-05-18T15:51:34.135Z,2.48
2017-05-18T15:54:01.101Z,2.20
2017-05-18T15:56:28.796Z,2.24
2017-05-18T15:58:55.707Z,2.80
2017-05-18T16:01:23.431Z,3.42
2017-05-18T16:03:50.342Z,2.86
2017-05-18T16:06:17.327Z,2.78
2017-05-18T16:08:45.247Z,2.42
2017-05-18T16:11:13.008Z,2.18
2017-05-18T16:13:40.727Z,2.98
2017-05-18T16:16:07.651Z,2.48
2017-05-18T16:18:34.804Z,2.62
2017-05-18T16:21:02.707Z,2.76
2017-05-18T16:23:30.399Z,3.10
2017-05-18T16:25:58.085Z,2.52
2017-05-18T16:28:25.849Z,2.52
2017-05-18T16:30:52.767Z,2.60
2017-05-18T16:33:20.437Z,2.54
2017-05-18T16:35:48.407Z,2.46
2017-05-18T16:38:16.128Z,2.60
2017-05-18T16:40:43.068Z,2.14
2017-05-18T16:43:09.987Z,2.50
2017-05-18T16:45:36.944Z,2.00
2017-05-18T16:48:03.875Z,2.34
2017-05-18T16:50:31.602Z,2.56
2017-05-18T17:02:48.787Z,1.74
2017-05-18T17:05:15.720Z,2.02
2017-05-18T17:07:42.639Z,2.60
2017-05-18T17:10:09.555Z,2.18
2017-05-18T17:12:36.481Z,2.26
2017-05-18T17:15:04.182Z,2.34
2017-05-18T17:17:31.172Z,2.12
2017-05-18T17:19:58.128Z,2.20
2017-05-18T17:22:25.838Z,2.54
2017-05-18T17:24:52.748Z,2.40
2017-05-18T17:27:20.524Z,2.20
2017-05-18T17:29:47.508Z,3.22
2017-05-18T17:32:14.452Z,2.90
2017-05-18T17:34:41.385Z,2.96
2017-05-18T17:37:08.360Z,2.80
2017-05-18T17:39:35.298Z,2.48
2017-05-18T17:42:02.265Z,2.60
2017-05-18T17:44:29.275Z,2.84
2017-05-18T17:46:55.871Z,2.92
2017-05-18T17:49:22.803Z,2.74
2017-05-18T17:51:49.752Z,3.30
2017-05-18T17:54:16.656Z,3.34
2017-05-18T17:56:43.649Z,3.10
2017-05-18T17:59:10.313Z,3.08
2017-05-18T18:01:37.371Z,3.22
2017-05-18T18:04:04.325Z,3.22
2017-05-18T18:06:31.291Z,3.12
2017-05-18T18:08:58.324Z,4.50
2017-05-18T18:11:25.280Z,3.24
2017-05-18T18:13:52.258Z,3.88
2017-05-18T18:16:19.179Z,3.76
2017-05-18T18:18:46.088Z,3.80
2017-05-18T18:21:13.037Z,3.72
2017-05-18T18:23:39.996Z,4.90
2017-05-18T18:26:06.932Z,4.18
2017-05-18T18:28:33.901Z,4.56
2017-05-18T18:31:00.846Z,4.24
2017-05-18T18:33:27.846Z,4.68
2017-05-18T18:35:55.556Z,4.28
2017-05-18T18:38:22.512Z,4.20
2017-05-18T18:40:49.522Z,4.26
2017-05-18T18:43:16.537Z,5.16
2017-05-18T18:45:44.202Z,5.58
2017-05-18T18:48:11.163Z,5.24
2017-05-18T18:50:38.813Z,5.54
2017-05-18T18:53:06.538Z,6.52
2017-05-18T18:55:33.529Z,5.22
2017-05-18T18:58:01.201Z,5.36
2017-05-18T19:00:28.881Z,5.90
2017-05-18T19:02:55.860Z,6.40
2017-05-18T19:05:22.794Z,6.18
2017-05-18T19:07:49.729Z,5.46
2017-05-18T19:10:16.664Z,6.30
2017-05-18T19:12:43.561Z,6.36
2017-05-18T19:15:10.564Z,7.48
2017-05-18T19:17:37.475Z,7.08
2017-05-18T19:20:05.110Z,7.42
2017-05-18T19:22:32.066Z,6.96
2017-05-18T19:25:00.222Z,6.90
2017-05-18T19:27:27.529Z,7.50
2017-05-18T19:29:54.516Z,6.36
2017-05-18T19:32:21.449Z,7.06
2017-05-18T19:34:48.416Z,7.00
2017-05-18T19:37:15.448Z,6.62
2017-05-18T19:39:42.370Z,7.38
2017-05-18T19:42:09.273Z,6.46
2017-05-18T19:44:36.260Z,6.14
2017-05-18T19:47:03.205Z,6.68
2017-05-18T19:49:30.174Z,7.22
2017-05-18T19:51:57.118Z,5.16
2017-05-18T19:54:24.058Z,4.40
2017-05-18T19:56:51.001Z,4.52
2017-05-18T19:59:17.974Z,4.10
2017-05-18T20:01:44.944Z,4.66
2017-05-18T20:04:11.859Z,6.02
2017-05-18T20:06:38.877Z,5.06
2017-05-18T20:09:05.867Z,4.50
2017-05-18T20:11:32.805Z,3.78
2017-05-18T20:13:59.753Z,4.02
2017-05-18T20:16:27.577Z,4.06
2017-05-18T20:18:55.005Z,4.24
2017-05-18T20:21:22.719Z,3.96
2017-05-18T20:23:50.667Z,3.78
2017-05-18T20:26:17.635Z,4.10
2017-05-18T20:28:44.580Z,4.62
2017-05-18T20:31:11.502Z,4.88
2017-05-18T20:33:39.402Z,4.48
2017-05-18T20:36:06.505Z,4.60
2017-05-18T20:38:34.197Z,4.50
2017-05-18T20:41:01.138Z,5.14
2017-05-18T20:43:28.204Z,4.22
2017-05-18T20:45:55.129Z,4.50
2017-05-18T20:48:22.159Z,4.28
2017-05-18T20:50:49.846Z,4.22
2017-05-18T20:53:16.794Z,3.82
2017-05-18T20:55:43.748Z,4.28
2017-05-18T20:58:11.555Z,4.58
2017-05-18T21:00:38.498Z,4.78
2017-05-18T21:12:50.453Z,5.18
2017-05-18T21:15:17.371Z,7.50
2017-05-18T21:17:44.500Z,5.46
2017-05-18T21:20:11.490Z,5.20
2017-05-18T21:22:38.439Z,4.62
2017-05-18T21:25:05.364Z,4.70
2017-05-18T21:27:32.262Z,4.84
2017-05-18T21:29:59.179Z,4.62
2017-05-18T21:32:27.038Z,5.50
2017-05-18T21:34:54.495Z,4.76
2017-05-18T21:37:21.892Z,4.92
2017-05-18T21:39:49.578Z,4.36
2017-05-18T21:42:20.511Z,4.76
2017-05-18T21:44:47.459Z,4.86
2017-05-18T21:47:14.687Z,4.42
2017-05-18T21:49:42.355Z,4.48
2017-05-18T21:52:10.080Z,4.58
2017-05-18T21:54:37.044Z,4.94
2017-05-18T21:57:04.923Z,4.32
2017-05-18T21:59:32.620Z,4.98
2017-05-18T22:02:03.292Z,4.82
2017-05-18T22:04:30.541Z,4.18
2017-05-18T22:07:00.597Z,4.80
2017-05-18T22:09:27.601Z,4.70
2017-05-18T22:11:54.536Z,4.56
2017-05-18T22:14:21.454Z,4.12
2017-05-18T22:16:48.448Z,4.88
2017-05-18T22:19:15.367Z,4.24
2017-05-18T22:21:43.141Z,4.52
2017-05-18T22:24:10.146Z,5.40
2017-05-18T22:26:38.344Z,4.88
2017-05-18T22:29:05.292Z,4.66
2017-05-18T22:31:32.235Z,4.54
2017-05-18T22:33:59.174Z,4.84
2017-05-18T22:36:26.068Z,6.06
2017-05-18T22:38:53.036Z,5.56
2017-05-18T22:41:20.706Z,6.12
2017-05-18T22:43:48.696Z,6.02
2017-05-18T22:46:30.539Z,6.10
2017-05-18T22:48:57.474Z,6.32
2017-05-18T22:51:24.380Z,5.60
2017-05-18T22:53:51.337Z,5.42
2017-05-18T22:56:18.265Z,5.24
2017-05-18T22:58:46.869Z,5.38
2017-05-18T23:01:13.804Z,4.76
2017-05-18T23:03:40.714Z,5.38
2017-05-18T23:06:07.650Z,5.34
2017-05-18T23:08:34.602Z,5.72
2017-05-18T23:11:01.548Z,5.06
2017-05-18T23:13:28.442Z,5.12
2017-05-18T23:15:55.428Z,4.88
2017-05-18T23:18:22.383Z,4.90
2017-05-18T23:20:49.319Z,4.42
2017-05-18T23:23:16.290Z,4.80
2017-05-18T23:25:43.964Z,4.42
2017-05-18T23:28:10.890Z,4.80
2017-05-18T23:30:37.803Z,4.56
2017-05-18T23:33:04.752Z,4.94
2017-05-18T23:35:31.689Z,5.18
2017-05-18T23:37:59.462Z,5.24
2017-05-18T23:40:26.391Z,5.10
2017-05-18T23:42:53.293Z,5.42
2017-05-18T23:45:20.938Z,5.92
2017-05-18T23:47:47.891Z,5.34
2017-05-18T23:50:14.851Z,6.60
2017-05-18T23:52:42.550Z,5.46
2017-05-18T23:55:09.494Z,5.78
2017-05-18T23:57:37.242Z,7.32
